• Join FlightAware (Why Join?)
  • Login
  • US Flag 
06:08PM EDT


 

Airport Tracker/Info


-or-


 

Live Flight TrackerFlight Track Log ✈ N101MA ✈ 09-Jul-2013 ✈ KJFK - KOXB

Flight Track Log - Related Links

Times and Time Zones

All times are in EDT time to prevent confusion due to time zone crossing. See the N101MA flight status page for this flight to view local times or setup timezone preferences in your user account.

Time Position Orientation Groundspeed Altitude Reporting Facility
EDT Latitude Longitude Course Direction KTS MPH feet Rate Location/Type
07:09PM 40.6167 -73.7833 201° Southwest 105 121 1,300  Level New York TRACON
07:10PM 40.5833 -73.8000 201° Southwest 113 130 2,100 900 Climbing New York TRACON
07:11PM 40.5500 -73.8333 217° Southwest 118 136 3,200 900 Climbing New York TRACON
07:12PM 40.5333 -73.8500 217° Southwest 124 143 4,100 900 Climbing New York TRACON
07:13PM 40.5000 -73.8833 217° Southwest 130 150 5,100 900 Climbing New York TRACON
07:14PM 40.4667 -73.9000 201° Southwest 133 153 6,000 480 Climbing New York TRACON
07:15PM 40.4333 -73.9333 217° Southwest 163 188 6,100  Climbing New York TRACON
07:16PM 40.3833 -73.9500 194° South 162 186 6,100  Level New York TRACON
07:18PM 40.3209 -73.9969 210° Southwest  Level FlightAware Approximate
07:25PM 40.0564 -74.1824 223° Southwest  Level FlightAware Approximate
07:26PM 40.0246 -74.2205 223° Southwest  Level FlightAware Approximate
07:27PM 39.9920 -74.2573 215° Southwest  Level FlightAware Approximate
07:28PM 39.9566 -74.2896 215° Southwest  Level FlightAware Approximate
07:29PM 39.9212 -74.3218 215° Southwest  Level FlightAware Approximate
07:30PM 39.8858 -74.3540 215° Southwest  Level FlightAware Approximate
07:31PM 39.8504 -74.3861 215° Southwest  Level FlightAware Approximate
07:31PM 39.8039 -74.4464 214° Southwest 168 193 6,100  Level Washington Center
07:32PM 39.8149 -74.4182 214° Southwest  Level FlightAware Approximate
07:33PM 39.7793 -74.4499 214° Southwest  Level FlightAware Approximate
07:33PM 39.7479 -74.4887 210° Southwest  Level FlightAware Approximate
07:34PM 39.7437 -74.4816 214° Southwest  Level FlightAware Approximate
07:35PM 39.7080 -74.5133 214° Southwest  Level FlightAware Approximate
07:35PM 39.6572 -74.5917 218° Southwest 168 193 6,100  Level Washington Center
07:36PM 39.6724 -74.5449 214° Southwest  Level FlightAware Approximate
07:37PM 39.5959 -74.6185 199° South  Level FlightAware Approximate
07:39PM 39.5061 -74.7336 216° Southwest 165 190 6,100  Level Washington Center
07:40PM 39.5200 -74.6967 218° Southwest  Level FlightAware Approximate
07:41PM 39.4525 -74.7790 213° Southwest  Level FlightAware Approximate
07:43PM 39.3297 -74.8081 203° Southwest 165 190 6,100  Level Washington Center
07:44PM 39.3732 -74.8353 216° Southwest  Level FlightAware Approximate
07:45PM 39.2761 -74.8550 214° Southwest  Level FlightAware Approximate
07:48PM 39.1966 -74.9788 203° Southwest  Level FlightAware Approximate
07:52PM 38.9809 -74.9380 203° Southwest  Level Estimated
07:53PM 38.9523 -74.9796 228° Southwest  Level FlightAware Approximate
07:54PM 38.9237 -75.0211 228° Southwest  Level FlightAware Approximate
07:55PM 38.8809 -75.0284 207° Southwest  Level Estimated
07:56PM 38.8472 -75.0630 219° Southwest  Level FlightAware Approximate
07:57PM 38.8135 -75.0976 219° Southwest  Level FlightAware Approximate
07:58PM 38.7798 -75.1322 219° Southwest  Level FlightAware Approximate
07:59PM 38.7461 -75.1668 219° Southwest  Level FlightAware Approximate
08:00PM 38.7124 -75.2013 219° Southwest  Level FlightAware Approximate
08:01PM 38.6697 -75.1931 208° Southwest  Level Estimated
08:02PM 38.6359 -75.2275 219° Southwest  Level FlightAware Approximate
08:03PM 38.6100 -75.2733 234° Southwest  Level FlightAware Approximate
08:04PM 38.5841 -75.3191 234° Southwest  Level FlightAware Approximate
08:05PM 38.5456 -75.2915 207° Southwest  Level Estimated
08:06PM 38.5106 -75.3260 218° Southwest  Level FlightAware Approximate
08:07PM 38.4756 -75.3605 218° Southwest  Level FlightAware Approximate
08:08PM 38.4406 -75.3949 218° Southwest  Level FlightAware Approximate
08:09PM 38.4056 -75.4292 218° Southwest  Level FlightAware Approximate
08:10PM 38.3705 -75.4636 218° Southwest  Level FlightAware Approximate
08:11PM 38.3333 -75.4607 90° East  Level FlightAware Approximate
08:12PM 38.3333 -75.4044 90° East  Level FlightAware Approximate
08:13PM 38.3287 -75.3484 97° East  Level FlightAware Approximate
08:14PM 38.3236 -75.2925 97° East  Level FlightAware Approximate
08:15PM 38.3185 -75.2366 97° East  Level FlightAware Approximate
08:16PM 38.3108 -75.1812 102° East  Level FlightAware Approximate
08:17PM 38.3016 -75.1261 102° East  Level FlightAware Approximate
08:18PM 38.3000 -75.1167 102° East  Level FlightAware Approximate
08:19PM 38.3104 -75.1240 102° East  Level Estimated
08:20PM 38.3104 -75.1240 102° East  Level Estimated
08:21PM 38.3104 -75.1240 102° East  Level Estimated
08:22PM 38.3104 -75.1240 102° East  Level Estimated
08:23PM 38.3104 -75.1240 102° East  Level Estimated
08:24PM 38.3104 -75.1240 102° East  Level Estimated
08:25PM 38.3104 -75.1240 102° East  Level Estimated
08:26PM 38.3104 -75.1240 102° East  Level Estimated
08:27PM 38.3104 -75.1240 102° East  Level Estimated
08:28PM 38.3104 -75.1240 102° East  Level Estimated
08:29PM 38.3104 -75.1240 102° East  Level Estimated
08:30PM 38.3104 -75.1240 102° East  Level Estimated
08:31PM 38.3104 -75.1240 102° East  Level Estimated
08:32PM 38.3104 -75.1240 102° East  Level Estimated